sensor_id;sensor_type;location;lat;lon;timestamp;P1;P2;P0
65574;PMS5003;52216;54.942;73.394;2023-01-19T00:00:03;3.00;3.00;0.00
65574;PMS5003;52216;54.942;73.394;2023-01-19T00:03:18;3.75;3.00;0.25
65574;PMS5003;52216;54.942;73.394;2023-01-19T00:06:22;3.00;2.00;1.00
65574;PMS5003;52216;54.942;73.394;2023-01-19T00:09:25;5.00;3.25;1.00
65574;PMS5003;52216;54.942;73.394;2023-01-19T00:12:34;3.00;3.00;1.00
65574;PMS5003;52216;54.942;73.394;2023-01-19T00:15:43;5.00;4.00;1.00
65574;PMS5003;52216;54.942;73.394;2023-01-19T00:18:57;3.00;2.75;1.00
65574;PMS5003;52216;54.942;73.394;2023-01-19T00:22:01;2.75;2.75;1.00
65574;PMS5003;52216;54.942;73.394;2023-01-19T00:25:04;2.00;2.00;1.00
65574;PMS5003;52216;54.942;73.394;2023-01-19T00:28:18;2.25;2.25;1.00
65574;PMS5003;52216;54.942;73.394;2023-01-19T00:31:21;1.75;1.75;0.00
65574;PMS5003;52216;54.942;73.394;2023-01-19T00:34:34;0.50;0.25;0.00
65574;PMS5003;52216;54.942;73.394;2023-01-19T00:37:55;0.25;0.00;0.00
65574;PMS5003;52216;54.942;73.394;2023-01-19T00:41:04;1.00;1.00;0.00
65574;PMS5003;52216;54.942;73.394;2023-01-19T00:44:17;1.00;1.00;0.00
65574;PMS5003;52216;54.942;73.394;2023-01-19T00:47:20;4.50;4.50;0.00
65574;PMS5003;52216;54.942;73.394;2023-01-19T00:50:23;1.00;1.00;0.00
65574;PMS5003;52216;54.942;73.394;2023-01-19T00:53:27;1.00;0.00;0.00
65574;PMS5003;52216;54.942;73.394;2023-01-19T00:56:34;1.75;1.00;0.00
65574;PMS5003;52216;54.942;73.394;2023-01-19T00:59:37;1.00;1.00;0.00
65574;PMS5003;52216;54.942;73.394;2023-01-19T01:02:40;1.00;1.00;0.00
65574;PMS5003;52216;54.942;73.394;2023-01-19T01:05:44;0.00;0.00;0.00
65574;PMS5003;52216;54.942;73.394;2023-01-19T01:08:52;1.00;0.00;0.00
65574;PMS5003;52216;54.942;73.394;2023-01-19T01:11:55;3.00;2.00;0.00
65574;PMS5003;52216;54.942;73.394;2023-01-19T01:14:58;3.50;3.00;0.00
65574;PMS5003;52216;54.942;73.394;2023-01-19T01:18:12;7.00;5.00;1.00
65574;PMS5003;52216;54.942;73.394;2023-01-19T01:21:15;9.25;7.00;3.00
65574;PMS5003;52216;54.942;73.394;2023-01-19T01:24:22;10.33;8.00;3.00
65574;PMS5003;52216;54.942;73.394;2023-01-19T01:27:25;10.00;7.33;3.00
65574;PMS5003;52216;54.942;73.394;2023-01-19T01:30:28;10.75;7.00;3.00
65574;PMS5003;52216;54.942;73.394;2023-01-19T01:33:40;14.00;10.00;4.25
65574;PMS5003;52216;54.942;73.394;2023-01-19T01:36:42;13.00;11.00;5.00
65574;PMS5003;52216;54.942;73.394;2023-01-19T01:39:44;14.00;13.00;5.00
65574;PMS5003;52216;54.942;73.394;2023-01-19T01:42:58;16.00;13.00;5.00
65574;PMS5003;52216;54.942;73.394;2023-01-19T01:46:01;16.75;15.00;5.00
65574;PMS5003;52216;54.942;73.394;2023-01-19T01:49:06;15.00;13.00;5.00
65574;PMS5003;52216;54.942;73.394;2023-01-19T01:52:09;13.00;13.00;5.25
65574;PMS5003;52216;54.942;73.394;2023-01-19T01:55:12;13.33;13.00;5.00
65574;PMS5003;52216;54.942;73.394;2023-01-19T01:58:15;15.00;15.00;5.00
65574;PMS5003;52216;54.942;73.394;2023-01-19T02:01:22;15.25;13.00;5.00
65574;PMS5003;52216;54.942;73.394;2023-01-19T02:04:53;15.00;11.75;4.75
65574;PMS5003;52216;54.942;73.394;2023-01-19T02:08:09;13.25;12.25;5.00
65574;PMS5003;52216;54.942;73.394;2023-01-19T02:11:35;14.00;12.75;5.00
65574;PMS5003;52216;54.942;73.394;2023-01-19T02:14:56;13.00;13.00;5.00
65574;PMS5003;52216;54.942;73.394;2023-01-19T02:17:58;11.50;11.00;3.00
65574;PMS5003;52216;54.942;73.394;2023-01-19T02:21:21;9.00;7.75;2.00
65574;PMS5003;52216;54.942;73.394;2023-01-19T02:24:35;3.25;3.00;1.00
65574;PMS5003;52216;54.942;73.394;2023-01-19T02:27:43;5.25;4.00;1.75
65574;PMS5003;52216;54.942;73.394;2023-01-19T02:30:47;5.00;3.00;1.00
65574;PMS5003;52216;54.942;73.394;2023-01-19T02:33:50;5.00;3.00;1.00
65574;PMS5003;52216;54.942;73.394;2023-01-19T02:37:08;3.00;2.00;1.00
65574;PMS5003;52216;54.942;73.394;2023-01-19T02:40:13;3.00;2.00;1.00
65574;PMS5003;52216;54.942;73.394;2023-01-19T02:43:26;2.00;2.00;0.00
65574;PMS5003;52216;54.942;73.394;2023-01-19T02:46:39;3.00;3.00;0.00
65574;PMS5003;52216;54.942;73.394;2023-01-19T02:49:43;5.00;4.00;2.00
65574;PMS5003;52216;54.942;73.394;2023-01-19T02:52:47;4.75;3.75;1.00
65574;PMS5003;52216;54.942;73.394;2023-01-19T02:59:21;5.25;5.00;3.00
65574;PMS5003;52216;54.942;73.394;2023-01-19T03:09:14;7.00;6.00;3.25
65574;PMS5003;52216;54.942;73.394;2023-01-19T03:15:35;7.00;5.00;1.00
65574;PMS5003;52216;54.942;73.394;2023-01-19T03:18:45;7.25;6.50;2.00
65574;PMS5003;52216;54.942;73.394;2023-01-19T03:21:53;9.00;6.00;3.00
65574;PMS5003;52216;54.942;73.394;2023-01-19T03:24:58;11.00;9.75;4.00
65574;PMS5003;52216;54.942;73.394;2023-01-19T03:28:01;11.00;11.00;4.00
65574;PMS5003;52216;54.942;73.394;2023-01-19T03:31:13;11.00;9.50;5.00
65574;PMS5003;52216;54.942;73.394;2023-01-19T03:34:16;13.00;12.33;5.33
65574;PMS5003;52216;54.942;73.394;2023-01-19T03:37:19;15.00;14.00;7.00
65574;PMS5003;52216;54.942;73.394;2023-01-19T03:40:24;15.50;14.50;7.00
65574;PMS5003;52216;54.942;73.394;2023-01-19T03:43:28;17.00;15.00;7.00
65574;PMS5003;52216;54.942;73.394;2023-01-19T03:46:32;17.50;17.00;7.75
65574;PMS5003;52216;54.942;73.394;2023-01-19T03:49:39;16.50;15.00;7.75
65574;PMS5003;52216;54.942;73.394;2023-01-19T03:53:09;15.00;13.00;4.00
65574;PMS5003;52216;54.942;73.394;2023-01-19T03:59:20;12.00;11.00;4.33
65574;PMS5003;52216;54.942;73.394;2023-01-19T04:02:24;10.00;9.00;3.00
65574;PMS5003;52216;54.942;73.394;2023-01-19T04:05:27;14.75;12.00;4.75
65574;PMS5003;52216;54.942;73.394;2023-01-19T04:08:35;20.75;18.75;9.00
65574;PMS5003;52216;54.942;73.394;2023-01-19T04:11:37;28.00;23.00;14.00
65574;PMS5003;52216;54.942;73.394;2023-01-19T04:14:39;29.50;23.00;14.00
65574;PMS5003;52216;54.942;73.394;2023-01-19T04:17:41;31.50;24.50;15.00
65574;PMS5003;52216;54.942;73.394;2023-01-19T04:20:44;31.00;24.00;15.00
65574;PMS5003;52216;54.942;73.394;2023-01-19T04:23:46;31.00;24.00;15.00
65574;PMS5003;52216;54.942;73.394;2023-01-19T04:26:58;27.00;22.00;13.00
65574;PMS5003;52216;54.942;73.394;2023-01-19T04:30:10;29.00;22.00;13.00
65574;PMS5003;52216;54.942;73.394;2023-01-19T04:33:12;27.00;22.00;13.25
65574;PMS5003;52216;54.942;73.394;2023-01-19T04:36:14;25.00;21.50;13.00
65574;PMS5003;52216;54.942;73.394;2023-01-19T04:39:17;21.00;19.00;13.00
65574;PMS5003;52216;54.942;73.394;2023-01-19T04:42:20;22.00;20.60;13.00
65574;PMS5003;52216;54.942;73.394;2023-01-19T04:45:23;23.50;21.00;13.00
65574;PMS5003;52216;54.942;73.394;2023-01-19T04:48:25;22.00;19.00;12.00
65574;PMS5003;52216;54.942;73.394;2023-01-19T04:51:27;21.00;18.25;11.00
65574;PMS5003;52216;54.942;73.394;2023-01-19T04:54:30;19.00;16.00;10.00
65574;PMS5003;52216;54.942;73.394;2023-01-19T04:57:32;17.00;15.00;9.00
65574;PMS5003;52216;54.942;73.394;2023-01-19T05:00:34;16.50;13.25;5.00
65574;PMS5003;52216;54.942;73.394;2023-01-19T05:03:36;14.25;13.00;5.00
65574;PMS5003;52216;54.942;73.394;2023-01-19T05:06:43;13.00;12.25;5.25
65574;PMS5003;52216;54.942;73.394;2023-01-19T05:09:45;13.75;13.00;5.00
65574;PMS5003;52216;54.942;73.394;2023-01-19T05:12:58;12.75;11.00;3.00
65574;PMS5003;52216;54.942;73.394;2023-01-19T05:16:11;14.00;12.00;5.00
65574;PMS5003;52216;54.942;73.394;2023-01-19T05:19:14;13.00;11.00;5.00
65574;PMS5003;52216;54.942;73.394;2023-01-19T05:22:17;13.00;10.75;5.00
65574;PMS5003;52216;54.942;73.394;2023-01-19T05:25:19;13.00;11.67;5.00
65574;PMS5003;52216;54.942;73.394;2023-01-19T05:28:22;15.00;13.00;5.00
65574;PMS5003;52216;54.942;73.394;2023-01-19T05:31:24;13.00;12.50;5.00
65574;PMS5003;52216;54.942;73.394;2023-01-19T05:34:26;14.00;13.50;5.25
65574;PMS5003;52216;54.942;73.394;2023-01-19T05:37:37;14.00;13.00;4.33
65574;PMS5003;52216;54.942;73.394;2023-01-19T05:40:39;13.00;12.00;3.75
65574;PMS5003;52216;54.942;73.394;2023-01-19T05:43:42;11.00;10.00;3.00
65574;PMS5003;52216;54.942;73.394;2023-01-19T05:46:54;9.50;9.00;3.00
65574;PMS5003;52216;54.942;73.394;2023-01-19T05:50:03;13.00;10.00;5.00
65574;PMS5003;52216;54.942;73.394;2023-01-19T05:53:06;11.75;9.75;3.75
65574;PMS5003;52216;54.942;73.394;2023-01-19T05:56:08;11.00;10.00;4.00
65574;PMS5003;52216;54.942;73.394;2023-01-19T05:59:12;12.00;10.00;4.25
65574;PMS5003;52216;54.942;73.394;2023-01-19T06:02:24;9.00;8.00;3.00
65574;PMS5003;52216;54.942;73.394;2023-01-19T06:05:39;7.00;4.50;2.00
65574;PMS5003;52216;54.942;73.394;2023-01-19T06:08:43;4.00;4.00;2.00
65574;PMS5003;52216;54.942;73.394;2023-01-19T06:11:48;5.75;4.75;2.00
65574;PMS5003;52216;54.942;73.394;2023-01-19T06:14:51;3.75;3.00;1.75
65574;PMS5003;52216;54.942;73.394;2023-01-19T06:17:54;5.25;4.00;1.75
65574;PMS5003;52216;54.942;73.394;2023-01-19T06:21:06;5.00;3.75;2.00
65574;PMS5003;52216;54.942;73.394;2023-01-19T06:24:09;5.50;4.50;2.25
65574;PMS5003;52216;54.942;73.394;2023-01-19T06:27:12;5.75;5.75;1.75
65574;PMS5003;52216;54.942;73.394;2023-01-19T06:30:15;8.00;6.50;3.00
65574;PMS5003;52216;54.942;73.394;2023-01-19T06:33:24;5.00;4.75;2.00
65574;PMS5003;52216;54.942;73.394;2023-01-19T06:36:32;4.00;4.00;1.00
65574;PMS5003;52216;54.942;73.394;2023-01-19T06:39:36;4.00;4.00;1.00
65574;PMS5003;52216;54.942;73.394;2023-01-19T06:42:42;4.00;4.00;1.00
65574;PMS5003;52216;54.942;73.394;2023-01-19T06:45:55;2.50;2.50;1.00
65574;PMS5003;52216;54.942;73.394;2023-01-19T06:48:57;2.00;2.00;1.00
65574;PMS5003;52216;54.942;73.394;2023-01-19T06:52:00;3.00;3.00;1.00
65574;PMS5003;52216;54.942;73.394;2023-01-19T06:55:03;2.00;2.00;0.00
65574;PMS5003;52216;54.942;73.394;2023-01-19T06:58:11;3.00;2.00;0.00
65574;PMS5003;52216;54.942;73.394;2023-01-19T07:01:18;2.00;2.00;0.00
65574;PMS5003;52216;54.942;73.394;2023-01-19T07:04:22;1.50;1.50;0.00
65574;PMS5003;52216;54.942;73.394;2023-01-19T07:07:30;3.50;3.25;0.00
65574;PMS5003;52216;54.942;73.394;2023-01-19T07:10:43;2.00;2.00;0.00
65574;PMS5003;52216;54.942;73.394;2023-01-19T07:13:46;2.00;2.00;0.00
65574;PMS5003;52216;54.942;73.394;2023-01-19T07:16:52;2.25;2.00;0.00
65574;PMS5003;52216;54.942;73.394;2023-01-19T07:19:54;3.00;3.00;0.00
65574;PMS5003;52216;54.942;73.394;2023-01-19T07:23:07;3.25;2.25;0.00
65574;PMS5003;52216;54.942;73.394;2023-01-19T07:26:11;4.00;3.00;0.00
65574;PMS5003;52216;54.942;73.394;2023-01-19T07:29:16;4.00;3.00;0.00
65574;PMS5003;52216;54.942;73.394;2023-01-19T07:32:24;3.00;2.00;0.00
65574;PMS5003;52216;54.942;73.394;2023-01-19T07:35:37;3.50;2.50;0.00
65574;PMS5003;52216;54.942;73.394;2023-01-19T07:38:45;4.25;4.25;1.00
65574;PMS5003;52216;54.942;73.394;2023-01-19T07:41:47;3.25;2.00;0.75
65574;PMS5003;52216;54.942;73.394;2023-01-19T07:44:56;4.75;3.00;1.00
65574;PMS5003;52216;54.942;73.394;2023-01-19T07:48:09;5.25;4.00;0.00
65574;PMS5003;52216;54.942;73.394;2023-01-19T07:51:13;6.50;6.00;2.00
65574;PMS5003;52216;54.942;73.394;2023-01-19T07:54:20;7.25;6.25;2.00
65574;PMS5003;52216;54.942;73.394;2023-01-19T07:57:31;9.00;6.25;4.00
65574;PMS5003;52216;54.942;73.394;2023-01-19T08:00:38;10.00;8.00;3.00
65574;PMS5003;52216;54.942;73.394;2023-01-19T08:03:51;10.00;6.75;3.00
65574;PMS5003;52216;54.942;73.394;2023-01-19T08:06:54;14.00;8.75;5.75
65574;PMS5003;52216;54.942;73.394;2023-01-19T08:09:58;12.00;10.25;4.00
65574;PMS5003;52216;54.942;73.394;2023-01-19T08:13:10;11.25;11.00;5.25
65574;PMS5003;52216;54.942;73.394;2023-01-19T08:16:12;14.50;12.00;6.00
65574;PMS5003;52216;54.942;73.394;2023-01-19T08:19:14;20.50;18.50;10.00
65574;PMS5003;52216;54.942;73.394;2023-01-19T08:22:29;23.00;20.00;12.00
65574;PMS5003;52216;54.942;73.394;2023-01-19T08:25:42;22.00;20.00;12.00
65574;PMS5003;52216;54.942;73.394;2023-01-19T08:28:55;22.00;20.00;13.00
65574;PMS5003;52216;54.942;73.394;2023-01-19T08:31:58;19.50;18.00;12.00
65574;PMS5003;52216;54.942;73.394;2023-01-19T08:35:02;21.00;19.00;12.00
65574;PMS5003;52216;54.942;73.394;2023-01-19T08:38:15;21.00;19.00;12.50
65574;PMS5003;52216;54.942;73.394;2023-01-19T08:41:18;20.00;19.00;12.00
65574;PMS5003;52216;54.942;73.394;2023-01-19T08:44:20;22.00;18.50;11.00
65574;PMS5003;52216;54.942;73.394;2023-01-19T08:47:28;20.25;18.00;11.00
65574;PMS5003;52216;54.942;73.394;2023-01-19T08:50:35;19.50;18.00;10.50
65574;PMS5003;52216;54.942;73.394;2023-01-19T08:53:37;17.75;17.00;10.50
65574;PMS5003;52216;54.942;73.394;2023-01-19T08:56:40;22.00;20.00;13.00
65574;PMS5003;52216;54.942;73.394;2023-01-19T08:59:42;19.00;17.00;11.00
65574;PMS5003;52216;54.942;73.394;2023-01-19T09:02:49;17.00;17.00;10.00
65574;PMS5003;52216;54.942;73.394;2023-01-19T09:05:52;15.00;15.00;9.00
65574;PMS5003;52216;54.942;73.394;2023-01-19T09:08:55;16.00;15.00;8.00
65574;PMS5003;52216;54.942;73.394;2023-01-19T09:12:03;15.00;14.00;7.00
65574;PMS5003;52216;54.942;73.394;2023-01-19T09:15:12;15.00;14.00;7.00
65574;PMS5003;52216;54.942;73.394;2023-01-19T09:18:25;14.00;12.75;5.00
65574;PMS5003;52216;54.942;73.394;2023-01-19T09:21:27;15.00;12.00;4.00
65574;PMS5003;52216;54.942;73.394;2023-01-19T09:24:35;15.00;13.00;6.00
65574;PMS5003;52216;54.942;73.394;2023-01-19T09:27:47;13.00;12.50;5.25
65574;PMS5003;52216;54.942;73.394;2023-01-19T09:30:49;15.00;13.00;5.00
65574;PMS5003;52216;54.942;73.394;2023-01-19T09:33:51;15.00;13.50;6.00
65574;PMS5003;52216;54.942;73.394;2023-01-19T09:36:53;17.00;15.00;6.00
65574;PMS5003;52216;54.942;73.394;2023-01-19T09:39:55;13.00;11.00;4.00
65574;PMS5003;52216;54.942;73.394;2023-01-19T09:43:20;11.00;11.00;3.00
65574;PMS5003;52216;54.942;73.394;2023-01-19T09:46:41;9.00;8.00;3.00
65574;PMS5003;52216;54.942;73.394;2023-01-19T09:49:51;10.25;9.00;4.00
65574;PMS5003;52216;54.942;73.394;2023-01-19T09:53:48;12.00;10.50;5.00
65574;PMS5003;52216;54.942;73.394;2023-01-19T09:56:41;11.25;11.00;3.00
65574;PMS5003;52216;54.942;73.394;2023-01-19T09:59:45;10.33;9.00;2.00
65574;PMS5003;52216;54.942;73.394;2023-01-19T10:02:55;12.00;10.00;4.00
65574;PMS5003;52216;54.942;73.394;2023-01-19T10:06:01;13.00;9.00;4.00
65574;PMS5003;52216;54.942;73.394;2023-01-19T10:09:17;10.00;6.50;2.50
65574;PMS5003;52216;54.942;73.394;2023-01-19T10:15:51;6.00;4.75;2.00
65574;PMS5003;52216;54.942;73.394;2023-01-19T10:18:56;6.00;6.00;3.00
65574;PMS5003;52216;54.942;73.394;2023-01-19T10:22:32;8.00;6.00;3.00
65574;PMS5003;52216;54.942;73.394;2023-01-19T10:25:33;8.50;6.25;2.00
65574;PMS5003;52216;54.942;73.394;2023-01-19T10:28:47;7.75;5.00;2.50
65574;PMS5003;52216;54.942;73.394;2023-01-19T10:32:09;6.00;4.25;2.00
65574;PMS5003;52216;54.942;73.394;2023-01-19T10:35:15;6.00;5.75;2.75
65574;PMS5003;52216;54.942;73.394;2023-01-19T10:38:27;5.75;5.00;2.00
65574;PMS5003;52216;54.942;73.394;2023-01-19T10:41:42;6.00;5.00;2.00
65574;PMS5003;52216;54.942;73.394;2023-01-19T10:44:46;7.75;5.25;2.00
65574;PMS5003;52216;54.942;73.394;2023-01-19T10:47:51;4.00;3.00;2.00
65574;PMS5003;52216;54.942;73.394;2023-01-19T10:51:01;4.00;4.00;2.00
65574;PMS5003;52216;54.942;73.394;2023-01-19T10:54:05;4.00;4.00;2.00
65574;PMS5003;52216;54.942;73.394;2023-01-19T10:57:19;4.00;4.00;2.00
65574;PMS5003;52216;54.942;73.394;2023-01-19T11:03:30;4.00;4.00;2.00
65574;PMS5003;52216;54.942;73.394;2023-01-19T11:06:38;5.00;4.00;2.00
65574;PMS5003;52216;54.942;73.394;2023-01-19T11:09:41;5.75;5.25;2.75
65574;PMS5003;52216;54.942;73.394;2023-01-19T11:15:52;8.00;8.00;3.75
65574;PMS5003;52216;54.942;73.394;2023-01-19T11:18:56;9.00;6.00;3.00
65574;PMS5003;52216;54.942;73.394;2023-01-19T11:22:10;10.00;6.00;2.00
65574;PMS5003;52216;54.942;73.394;2023-01-19T11:25:20;7.00;5.00;2.00
65574;PMS5003;52216;54.942;73.394;2023-01-19T11:28:36;6.00;4.75;2.25
65574;PMS5003;52216;54.942;73.394;2023-01-19T11:31:40;6.00;6.00;3.00
65574;PMS5003;52216;54.942;73.394;2023-01-19T11:34:43;6.00;6.00;2.00
65574;PMS5003;52216;54.942;73.394;2023-01-19T11:37:46;5.00;4.00;2.00
65574;PMS5003;52216;54.942;73.394;2023-01-19T11:40:53;7.75;5.75;3.00
65574;PMS5003;52216;54.942;73.394;2023-01-19T11:43:59;6.00;5.25;2.00
65574;PMS5003;52216;54.942;73.394;2023-01-19T11:47:20;5.00;3.75;1.75
65574;PMS5003;52216;54.942;73.394;2023-01-19T11:50:33;6.00;4.75;3.00
65574;PMS5003;52216;54.942;73.394;2023-01-19T11:53:36;4.75;4.75;3.00
65574;PMS5003;52216;54.942;73.394;2023-01-19T11:56:45;5.25;4.00;2.00
65574;PMS5003;52216;54.942;73.394;2023-01-19T11:59:50;6.75;5.00;3.00
65574;PMS5003;52216;54.942;73.394;2023-01-19T12:02:58;5.75;4.00;2.00
65574;PMS5003;52216;54.942;73.394;2023-01-19T12:06:21;7.25;5.00;2.00
65574;PMS5003;52216;54.942;73.394;2023-01-19T12:09:27;6.00;5.50;1.75
65574;PMS5003;52216;54.942;73.394;2023-01-19T12:12:34;6.75;5.75;2.00
65574;PMS5003;52216;54.942;73.394;2023-01-19T12:15:40;6.00;6.00;2.25
65574;PMS5003;52216;54.942;73.394;2023-01-19T12:18:55;7.75;6.75;2.00
65574;PMS5003;52216;54.942;73.394;2023-01-19T12:22:00;5.00;4.00;1.75
65574;PMS5003;52216;54.942;73.394;2023-01-19T12:25:27;5.75;4.50;1.75
65574;PMS5003;52216;54.942;73.394;2023-01-19T12:28:27;5.50;5.00;1.25
65574;PMS5003;52216;54.942;73.394;2023-01-19T12:31:32;5.00;5.00;2.00
65574;PMS5003;52216;54.942;73.394;2023-01-19T12:34:39;5.00;5.00;3.00
65574;PMS5003;52216;54.942;73.394;2023-01-19T12:37:52;7.25;5.00;1.25
65574;PMS5003;52216;54.942;73.394;2023-01-19T12:44:22;4.75;4.00;1.00
65574;PMS5003;52216;54.942;73.394;2023-01-19T12:47:26;4.00;4.00;1.00
65574;PMS5003;52216;54.942;73.394;2023-01-19T12:50:31;5.00;4.00;1.00
65574;PMS5003;52216;54.942;73.394;2023-01-19T12:53:50;4.00;4.00;1.50
65574;PMS5003;52216;54.942;73.394;2023-01-19T12:56:57;4.75;4.25;1.00
65574;PMS5003;52216;54.942;73.394;2023-01-19T13:00:06;3.25;3.00;1.00
65574;PMS5003;52216;54.942;73.394;2023-01-19T13:06:19;4.50;4.00;2.00
65574;PMS5003;52216;54.942;73.394;2023-01-19T13:09:29;4.00;4.00;1.25
65574;PMS5003;52216;54.942;73.394;2023-01-19T13:12:32;5.00;4.75;3.00
65574;PMS5003;52216;54.942;73.394;2023-01-19T13:15:35;4.75;3.50;1.00
65574;PMS5003;52216;54.942;73.394;2023-01-19T13:22:47;4.75;3.25;1.00
65574;PMS5003;52216;54.942;73.394;2023-01-19T13:28:41;5.00;5.00;1.00
65574;PMS5003;52216;54.942;73.394;2023-01-19T13:31:44;5.00;4.25;1.00
65574;PMS5003;52216;54.942;73.394;2023-01-19T13:35:00;5.00;3.00;1.00
65574;PMS5003;52216;54.942;73.394;2023-01-19T13:38:05;5.50;4.75;1.00
65574;PMS5003;52216;54.942;73.394;2023-01-19T13:41:09;5.00;4.00;2.00
65574;PMS5003;52216;54.942;73.394;2023-01-19T13:44:17;3.50;3.50;1.00
65574;PMS5003;52216;54.942;73.394;2023-01-19T13:47:24;4.00;3.25;2.00
65574;PMS5003;52216;54.942;73.394;2023-01-19T13:50:31;3.00;3.00;1.00
65574;PMS5003;52216;54.942;73.394;2023-01-19T13:53:35;3.25;3.25;1.25
65574;PMS5003;52216;54.942;73.394;2023-01-19T13:56:38;3.00;3.00;1.00
65574;PMS5003;52216;54.942;73.394;2023-01-19T13:59:43;3.00;3.00;1.00
65574;PMS5003;52216;54.942;73.394;2023-01-19T14:02:50;3.00;3.00;1.00
65574;PMS5003;52216;54.942;73.394;2023-01-19T14:05:53;3.00;3.00;1.00
65574;PMS5003;52216;54.942;73.394;2023-01-19T14:09:13;4.50;3.00;1.00
65574;PMS5003;52216;54.942;73.394;2023-01-19T14:12:18;5.00;4.00;2.00
65574;PMS5003;52216;54.942;73.394;2023-01-19T14:15:21;4.00;3.00;1.00
65574;PMS5003;52216;54.942;73.394;2023-01-19T14:21:35;5.00;5.00;1.00
65574;PMS5003;52216;54.942;73.394;2023-01-19T14:24:39;5.00;4.25;1.50
65574;PMS5003;52216;54.942;73.394;2023-01-19T14:28:24;3.50;3.00;1.00
65574;PMS5003;52216;54.942;73.394;2023-01-19T14:31:21;5.00;4.00;1.00
65574;PMS5003;52216;54.942;73.394;2023-01-19T14:37:48;6.75;5.00;2.00
65574;PMS5003;52216;54.942;73.394;2023-01-19T14:40:52;10.25;9.00;4.00
65574;PMS5003;52216;54.942;73.394;2023-01-19T14:43:55;13.00;11.00;4.00
65574;PMS5003;52216;54.942;73.394;2023-01-19T14:46:57;13.00;11.25;3.75
65574;PMS5003;52216;54.942;73.394;2023-01-19T14:53:52;16.00;15.00;7.00
65574;PMS5003;52216;54.942;73.394;2023-01-19T14:56:56;15.67;15.00;6.33
65574;PMS5003;52216;54.942;73.394;2023-01-19T15:00:08;13.00;13.00;4.00
65574;PMS5003;52216;54.942;73.394;2023-01-19T15:03:13;10.75;9.00;3.00
65574;PMS5003;52216;54.942;73.394;2023-01-19T15:06:17;9.00;6.00;2.00
65574;PMS5003;52216;54.942;73.394;2023-01-19T15:09:30;7.00;5.00;3.00
65574;PMS5003;52216;54.942;73.394;2023-01-19T15:12:34;9.00;7.00;2.50
65574;PMS5003;52216;54.942;73.394;2023-01-19T15:15:47;7.00;5.00;2.00
65574;PMS5003;52216;54.942;73.394;2023-01-19T15:18:53;5.00;4.00;1.00
65574;PMS5003;52216;54.942;73.394;2023-01-19T15:21:56;3.00;3.00;1.00
65574;PMS5003;52216;54.942;73.394;2023-01-19T15:24:59;3.25;3.00;1.00
65574;PMS5003;52216;54.942;73.394;2023-01-19T15:28:09;5.00;4.00;2.00
65574;PMS5003;52216;54.942;73.394;2023-01-19T15:31:14;4.00;4.00;1.00
65574;PMS5003;52216;54.942;73.394;2023-01-19T15:34:17;5.75;5.00;2.00
65574;PMS5003;52216;54.942;73.394;2023-01-19T15:37:30;4.00;4.00;1.00
65574;PMS5003;52216;54.942;73.394;2023-01-19T15:40:34;4.25;4.25;1.00
65574;PMS5003;52216;54.942;73.394;2023-01-19T15:43:38;7.00;6.25;2.50
65574;PMS5003;52216;54.942;73.394;2023-01-19T15:46:40;5.00;5.00;2.50
65574;PMS5003;52216;54.942;73.394;2023-01-19T15:49:48;4.00;4.00;3.00
65574;PMS5003;52216;54.942;73.394;2023-01-19T15:53:01;5.50;5.25;3.00
65574;PMS5003;52216;54.942;73.394;2023-01-19T15:56:05;6.00;6.00;3.00
65574;PMS5003;52216;54.942;73.394;2023-01-19T15:59:07;7.25;7.00;3.00
65574;PMS5003;52216;54.942;73.394;2023-01-19T16:02:11;9.00;7.50;4.00
65574;PMS5003;52216;54.942;73.394;2023-01-19T16:05:14;10.00;9.00;3.00
65574;PMS5003;52216;54.942;73.394;2023-01-19T16:08:18;12.00;10.00;3.00
65574;PMS5003;52216;54.942;73.394;2023-01-19T16:11:32;11.00;9.00;3.00
65574;PMS5003;52216;54.942;73.394;2023-01-19T16:14:36;13.00;9.00;4.00
65574;PMS5003;52216;54.942;73.394;2023-01-19T16:17:44;14.75;12.00;5.00
65574;PMS5003;52216;54.942;73.394;2023-01-19T16:20:47;14.00;13.50;6.00
65574;PMS5003;52216;54.942;73.394;2023-01-19T16:23:50;15.00;14.00;6.00
65574;PMS5003;52216;54.942;73.394;2023-01-19T16:26:58;14.50;13.00;5.00
65574;PMS5003;52216;54.942;73.394;2023-01-19T16:30:11;13.00;13.00;3.50
65574;PMS5003;52216;54.942;73.394;2023-01-19T16:33:23;11.67;11.00;3.00
65574;PMS5003;52216;54.942;73.394;2023-01-19T16:36:30;11.00;11.00;5.00
65574;PMS5003;52216;54.942;73.394;2023-01-19T16:39:43;11.25;11.00;4.00
65574;PMS5003;52216;54.942;73.394;2023-01-19T16:42:47;13.00;11.00;4.00
65574;PMS5003;52216;54.942;73.394;2023-01-19T16:45:57;10.00;9.00;3.00
65574;PMS5003;52216;54.942;73.394;2023-01-19T16:49:12;11.75;8.00;2.50
65574;PMS5003;52216;54.942;73.394;2023-01-19T16:52:16;11.00;9.00;2.00
65574;PMS5003;52216;54.942;73.394;2023-01-19T16:55:19;12.00;9.00;3.00
65574;PMS5003;52216;54.942;73.394;2023-01-19T16:58:22;10.25;7.00;3.00
65574;PMS5003;52216;54.942;73.394;2023-01-19T17:01:26;9.00;6.00;2.00
65574;PMS5003;52216;54.942;73.394;2023-01-19T17:04:30;9.00;7.00;3.00
65574;PMS5003;52216;54.942;73.394;2023-01-19T17:07:33;9.00;7.00;2.00
65574;PMS5003;52216;54.942;73.394;2023-01-19T17:10:35;9.00;8.00;3.00
65574;PMS5003;52216;54.942;73.394;2023-01-19T17:13:39;9.00;7.00;4.00
65574;PMS5003;52216;54.942;73.394;2023-01-19T17:16:42;7.00;5.00;2.00
65574;PMS5003;52216;54.942;73.394;2023-01-19T17:19:49;5.00;5.00;2.00
65574;PMS5003;52216;54.942;73.394;2023-01-19T17:22:53;7.00;6.75;3.00
65574;PMS5003;52216;54.942;73.394;2023-01-19T17:25:57;7.00;5.00;3.00
65574;PMS5003;52216;54.942;73.394;2023-01-19T17:29:06;6.50;5.25;1.25
65574;PMS5003;52216;54.942;73.394;2023-01-19T17:32:09;4.50;4.50;1.00
65574;PMS5003;52216;54.942;73.394;2023-01-19T17:35:22;3.25;3.25;1.00
65574;PMS5003;52216;54.942;73.394;2023-01-19T17:38:35;6.00;5.00;3.00
65574;PMS5003;52216;54.942;73.394;2023-01-19T17:41:39;5.00;3.75;1.50
65574;PMS5003;52216;54.942;73.394;2023-01-19T17:44:47;5.00;3.00;1.00
65574;PMS5003;52216;54.942;73.394;2023-01-19T17:47:50;4.25;4.00;1.00
65574;PMS5003;52216;54.942;73.394;2023-01-19T17:50:53;5.00;4.00;1.00
65574;PMS5003;52216;54.942;73.394;2023-01-19T17:54:07;4.50;3.50;2.00
65574;PMS5003;52216;54.942;73.394;2023-01-19T17:57:17;4.00;4.00;1.00
65574;PMS5003;52216;54.942;73.394;2023-01-19T18:00:20;3.00;3.00;1.00
65574;PMS5003;52216;54.942;73.394;2023-01-19T18:03:23;5.00;4.00;1.00
65574;PMS5003;52216;54.942;73.394;2023-01-19T18:06:37;5.50;5.00;1.75
65574;PMS5003;52216;54.942;73.394;2023-01-19T18:09:49;7.00;5.00;2.25
65574;PMS5003;52216;54.942;73.394;2023-01-19T18:12:53;7.00;5.00;1.50
65574;PMS5003;52216;54.942;73.394;2023-01-19T18:16:15;7.00;6.00;2.50
65574;PMS5003;52216;54.942;73.394;2023-01-19T18:19:19;7.75;6.00;3.00
65574;PMS5003;52216;54.942;73.394;2023-01-19T18:22:23;7.00;3.00;1.25
65574;PMS5003;52216;54.942;73.394;2023-01-19T18:25:36;5.00;5.00;2.25
65574;PMS5003;52216;54.942;73.394;2023-01-19T18:28:47;4.00;3.75;1.00
65574;PMS5003;52216;54.942;73.394;2023-01-19T18:32:00;4.25;3.00;1.00
65574;PMS5003;52216;54.942;73.394;2023-01-19T18:35:03;4.25;3.00;1.00
65574;PMS5003;52216;54.942;73.394;2023-01-19T18:38:13;5.50;5.00;1.00